Terminal Aerodrome Forecast
Issued by NWS

Home | Current Version | Previous Version | Graphics & Text | Print | Product List | Glossary On
Versions: 1 2 3 4 5 6 7 8 9 10 11 12 13 14 15 16 17 18 19 20 21
000
FTUS43 KGRB 162323
TAFMTW
TAF
KMTW 162323Z 1700/1724 04006KT P6SM BKN025 BKN080
      TEMPO 1700/1703 SCT025 BKN080
     FM170900 06007KT 6SM BR SCT008 OVC018
     FM171800 VRB03KT P6SM OVC020=

USA.gov is the U.S. government's official web portal to all federal, state and local government web resources and services.